sensor_id;sensor_type;location;lat;lon;timestamp;P1;durP1;ratioP1;P2;durP2;ratioP2
41687;SDS011;27371;42.686;23.362;2023-07-29T00:02:04;3.83;;;2.55;;
41687;SDS011;27371;42.686;23.362;2023-07-29T00:04:29;4.13;;;2.20;;
41687;SDS011;27371;42.686;23.362;2023-07-29T00:06:55;7.82;;;2.83;;
41687;SDS011;27371;42.686;23.362;2023-07-29T00:09:21;5.53;;;2.63;;
41687;SDS011;27371;42.686;23.362;2023-07-29T00:11:46;5.72;;;2.75;;
41687;SDS011;27371;42.686;23.362;2023-07-29T00:14:12;6.95;;;3.72;;
41687;SDS011;27371;42.686;23.362;2023-07-29T00:16:37;4.13;;;2.95;;
41687;SDS011;27371;42.686;23.362;2023-07-29T00:19:02;3.60;;;2.47;;
41687;SDS011;27371;42.686;23.362;2023-07-29T00:21:28;4.57;;;1.90;;
41687;SDS011;27371;42.686;23.362;2023-07-29T00:23:54;2.72;;;2.00;;
41687;SDS011;27371;42.686;23.362;2023-07-29T00:26:22;5.20;;;1.88;;
41687;SDS011;27371;42.686;23.362;2023-07-29T00:28:48;4.25;;;2.55;;
41687;SDS011;27371;42.686;23.362;2023-07-29T00:31:13;3.67;;;1.70;;
41687;SDS011;27371;42.686;23.362;2023-07-29T00:33:39;3.33;;;1.98;;
41687;SDS011;27371;42.686;23.362;2023-07-29T00:36:04;2.47;;;1.92;;
41687;SDS011;27371;42.686;23.362;2023-07-29T00:38:30;3.50;;;1.70;;
41687;SDS011;27371;42.686;23.362;2023-07-29T00:40:58;4.13;;;2.03;;
41687;SDS011;27371;42.686;23.362;2023-07-29T00:43:27;3.40;;;1.90;;
41687;SDS011;27371;42.686;23.362;2023-07-29T00:45:52;5.72;;;2.20;;
41687;SDS011;27371;42.686;23.362;2023-07-29T00:48:18;3.17;;;1.98;;
41687;SDS011;27371;42.686;23.362;2023-07-29T00:50:44;4.15;;;2.10;;
41687;SDS011;27371;42.686;23.362;2023-07-29T00:53:10;3.88;;;1.90;;
41687;SDS011;27371;42.686;23.362;2023-07-29T00:55:36;4.75;;;2.08;;
41687;SDS011;27371;42.686;23.362;2023-07-29T00:58:02;3.17;;;2.25;;
41687;SDS011;27371;42.686;23.362;2023-07-29T01:00:28;3.42;;;1.95;;
41687;SDS011;27371;42.686;23.362;2023-07-29T01:02:53;3.78;;;2.00;;
41687;SDS011;27371;42.686;23.362;2023-07-29T01:05:19;3.63;;;1.98;;
41687;SDS011;27371;42.686;23.362;2023-07-29T01:13:26;4.30;;;2.45;;
41687;SDS011;27371;42.686;23.362;2023-07-29T01:16:05;3.95;;;2.72;;
41687;SDS011;27371;42.686;23.362;2023-07-29T01:18:40;5.22;;;2.78;;
41687;SDS011;27371;42.686;23.362;2023-07-29T01:21:08;5.13;;;2.00;;
41687;SDS011;27371;42.686;23.362;2023-07-29T01:23:36;3.50;;;2.00;;
41687;SDS011;27371;42.686;23.362;2023-07-29T01:26:02;4.72;;;2.00;;
41687;SDS011;27371;42.686;23.362;2023-07-29T01:28:28;3.70;;;2.22;;
41687;SDS011;27371;42.686;23.362;2023-07-29T01:36:38;5.30;;;2.03;;
41687;SDS011;27371;42.686;23.362;2023-07-29T01:39:07;3.65;;;1.88;;
41687;SDS011;27371;42.686;23.362;2023-07-29T01:41:33;4.05;;;2.42;;
41687;SDS011;27371;42.686;23.362;2023-07-29T01:44:00;3.25;;;1.92;;
41687;SDS011;27371;42.686;23.362;2023-07-29T01:46:26;3.50;;;2.42;;
41687;SDS011;27371;42.686;23.362;2023-07-29T01:48:52;3.20;;;2.00;;
41687;SDS011;27371;42.686;23.362;2023-07-29T01:51:17;5.32;;;2.17;;
41687;SDS011;27371;42.686;23.362;2023-07-29T01:53:43;4.50;;;2.47;;
41687;SDS011;27371;42.686;23.362;2023-07-29T01:56:08;9.07;;;3.00;;
41687;SDS011;27371;42.686;23.362;2023-07-29T01:58:34;4.60;;;2.80;;
41687;SDS011;27371;42.686;23.362;2023-07-29T02:00:59;3.10;;;2.00;;
41687;SDS011;27371;42.686;23.362;2023-07-29T02:03:25;8.70;;;3.25;;
41687;SDS011;27371;42.686;23.362;2023-07-29T02:05:51;4.22;;;2.90;;
41687;SDS011;27371;42.686;23.362;2023-07-29T02:08:16;3.97;;;2.50;;
41687;SDS011;27371;42.686;23.362;2023-07-29T02:10:41;4.15;;;2.63;;
41687;SDS011;27371;42.686;23.362;2023-07-29T02:13:10;4.15;;;2.53;;
41687;SDS011;27371;42.686;23.362;2023-07-29T02:15:35;3.40;;;2.28;;
41687;SDS011;27371;42.686;23.362;2023-07-29T02:18:01;3.63;;;2.08;;
41687;SDS011;27371;42.686;23.362;2023-07-29T02:20:28;10.50;;;2.45;;
41687;SDS011;27371;42.686;23.362;2023-07-29T02:22:54;4.57;;;2.95;;
41687;SDS011;27371;42.686;23.362;2023-07-29T02:25:19;5.53;;;2.72;;
41687;SDS011;27371;42.686;23.362;2023-07-29T02:27:45;3.90;;;2.90;;
41687;SDS011;27371;42.686;23.362;2023-07-29T02:30:11;6.20;;;2.88;;
41687;SDS011;27371;42.686;23.362;2023-07-29T02:32:37;6.30;;;2.80;;
41687;SDS011;27371;42.686;23.362;2023-07-29T02:35:03;3.00;;;2.30;;
41687;SDS011;27371;42.686;23.362;2023-07-29T02:37:29;3.22;;;2.33;;
41687;SDS011;27371;42.686;23.362;2023-07-29T02:39:55;3.10;;;2.40;;
41687;SDS011;27371;42.686;23.362;2023-07-29T02:42:20;3.05;;;2.50;;
41687;SDS011;27371;42.686;23.362;2023-07-29T02:44:46;4.82;;;2.85;;
41687;SDS011;27371;42.686;23.362;2023-07-29T02:47:12;9.18;;;2.85;;
41687;SDS011;27371;42.686;23.362;2023-07-29T02:49:37;3.35;;;2.42;;
41687;SDS011;27371;42.686;23.362;2023-07-29T02:52:03;5.57;;;3.22;;
41687;SDS011;27371;42.686;23.362;2023-07-29T02:54:29;5.68;;;4.18;;
41687;SDS011;27371;42.686;23.362;2023-07-29T02:56:54;7.53;;;4.75;;
41687;SDS011;27371;42.686;23.362;2023-07-29T02:59:20;7.85;;;4.32;;
41687;SDS011;27371;42.686;23.362;2023-07-29T03:01:45;4.40;;;2.30;;
41687;SDS011;27371;42.686;23.362;2023-07-29T03:04:11;3.65;;;2.50;;
41687;SDS011;27371;42.686;23.362;2023-07-29T03:06:38;6.57;;;2.63;;
41687;SDS011;27371;42.686;23.362;2023-07-29T03:09:03;6.28;;;3.05;;
41687;SDS011;27371;42.686;23.362;2023-07-29T03:11:31;8.85;;;2.33;;
41687;SDS011;27371;42.686;23.362;2023-07-29T03:13:57;3.38;;;2.35;;
41687;SDS011;27371;42.686;23.362;2023-07-29T03:16:22;4.07;;;2.22;;
41687;SDS011;27371;42.686;23.362;2023-07-29T03:18:48;4.07;;;2.45;;
41687;SDS011;27371;42.686;23.362;2023-07-29T03:21:14;5.32;;;2.60;;
41687;SDS011;27371;42.686;23.362;2023-07-29T03:23:40;3.45;;;2.25;;
41687;SDS011;27371;42.686;23.362;2023-07-29T03:26:06;5.25;;;2.25;;
41687;SDS011;27371;42.686;23.362;2023-07-29T03:28:36;6.75;;;2.50;;
41687;SDS011;27371;42.686;23.362;2023-07-29T03:31:05;4.70;;;2.20;;
41687;SDS011;27371;42.686;23.362;2023-07-29T03:33:30;6.07;;;2.38;;
41687;SDS011;27371;42.686;23.362;2023-07-29T03:35:56;3.58;;;2.08;;
41687;SDS011;27371;42.686;23.362;2023-07-29T03:38:22;5.13;;;2.33;;
41687;SDS011;27371;42.686;23.362;2023-07-29T03:40:47;4.07;;;2.45;;
41687;SDS011;27371;42.686;23.362;2023-07-29T03:43:13;3.17;;;2.08;;
41687;SDS011;27371;42.686;23.362;2023-07-29T03:45:39;6.47;;;2.30;;
41687;SDS011;27371;42.686;23.362;2023-07-29T03:48:05;3.92;;;2.42;;
41687;SDS011;27371;42.686;23.362;2023-07-29T03:50:34;4.00;;;2.45;;
41687;SDS011;27371;42.686;23.362;2023-07-29T03:53:01;3.90;;;2.28;;
41687;SDS011;27371;42.686;23.362;2023-07-29T03:55:27;4.97;;;2.40;;
41687;SDS011;27371;42.686;23.362;2023-07-29T03:57:55;3.50;;;2.50;;
41687;SDS011;27371;42.686;23.362;2023-07-29T04:00:21;4.22;;;2.28;;
41687;SDS011;27371;42.686;23.362;2023-07-29T04:02:47;6.25;;;2.85;;
41687;SDS011;27371;42.686;23.362;2023-07-29T04:05:12;3.63;;;2.60;;
41687;SDS011;27371;42.686;23.362;2023-07-29T04:07:38;3.45;;;2.28;;
41687;SDS011;27371;42.686;23.362;2023-07-29T04:10:04;4.03;;;2.10;;
41687;SDS011;27371;42.686;23.362;2023-07-29T04:12:30;5.72;;;2.28;;
41687;SDS011;27371;42.686;23.362;2023-07-29T04:14:56;4.65;;;2.35;;
41687;SDS011;27371;42.686;23.362;2023-07-29T04:17:21;4.65;;;2.22;;
41687;SDS011;27371;42.686;23.362;2023-07-29T04:19:47;5.35;;;2.35;;
41687;SDS011;27371;42.686;23.362;2023-07-29T04:22:13;4.80;;;2.15;;
41687;SDS011;27371;42.686;23.362;2023-07-29T04:24:41;4.20;;;2.13;;
41687;SDS011;27371;42.686;23.362;2023-07-29T04:27:06;4.93;;;2.15;;
41687;SDS011;27371;42.686;23.362;2023-07-29T04:29:32;6.15;;;2.50;;
41687;SDS011;27371;42.686;23.362;2023-07-29T04:31:57;3.33;;;2.20;;
41687;SDS011;27371;42.686;23.362;2023-07-29T04:34:23;3.92;;;2.10;;
41687;SDS011;27371;42.686;23.362;2023-07-29T04:36:48;4.70;;;2.28;;
41687;SDS011;27371;42.686;23.362;2023-07-29T04:39:14;3.55;;;2.20;;
41687;SDS011;27371;42.686;23.362;2023-07-29T04:41:40;2.80;;;2.30;;
41687;SDS011;27371;42.686;23.362;2023-07-29T04:44:06;2.80;;;2.22;;
41687;SDS011;27371;42.686;23.362;2023-07-29T04:46:31;3.25;;;2.35;;
41687;SDS011;27371;42.686;23.362;2023-07-29T04:48:57;7.40;;;3.42;;
41687;SDS011;27371;42.686;23.362;2023-07-29T04:51:23;6.10;;;3.05;;
41687;SDS011;27371;42.686;23.362;2023-07-29T04:53:49;2.92;;;2.40;;
41687;SDS011;27371;42.686;23.362;2023-07-29T04:56:15;8.02;;;4.13;;
41687;SDS011;27371;42.686;23.362;2023-07-29T04:58:40;5.97;;;2.50;;
41687;SDS011;27371;42.686;23.362;2023-07-29T05:01:06;5.03;;;2.33;;
41687;SDS011;27371;42.686;23.362;2023-07-29T05:03:31;5.18;;;2.50;;
41687;SDS011;27371;42.686;23.362;2023-07-29T05:05:57;6.10;;;2.22;;
41687;SDS011;27371;42.686;23.362;2023-07-29T05:08:24;4.45;;;2.38;;
41687;SDS011;27371;42.686;23.362;2023-07-29T05:10:51;6.43;;;2.53;;
41687;SDS011;27371;42.686;23.362;2023-07-29T05:13:18;5.07;;;2.53;;
41687;SDS011;27371;42.686;23.362;2023-07-29T05:15:43;5.07;;;2.50;;
41687;SDS011;27371;42.686;23.362;2023-07-29T05:18:09;3.33;;;2.47;;
41687;SDS011;27371;42.686;23.362;2023-07-29T05:20:34;6.70;;;3.05;;
41687;SDS011;27371;42.686;23.362;2023-07-29T05:23:00;8.25;;;2.55;;
41687;SDS011;27371;42.686;23.362;2023-07-29T05:25:25;6.68;;;2.70;;
41687;SDS011;27371;42.686;23.362;2023-07-29T05:27:51;5.88;;;2.25;;
41687;SDS011;27371;42.686;23.362;2023-07-29T05:30:17;4.60;;;2.53;;
41687;SDS011;27371;42.686;23.362;2023-07-29T05:32:42;4.88;;;2.72;;
41687;SDS011;27371;42.686;23.362;2023-07-29T05:35:08;7.63;;;4.00;;
41687;SDS011;27371;42.686;23.362;2023-07-29T05:37:33;8.43;;;2.65;;
41687;SDS011;27371;42.686;23.362;2023-07-29T05:39:59;5.80;;;3.17;;
41687;SDS011;27371;42.686;23.362;2023-07-29T05:42:24;4.47;;;2.88;;
41687;SDS011;27371;42.686;23.362;2023-07-29T05:44:50;12.20;;;3.30;;
41687;SDS011;27371;42.686;23.362;2023-07-29T05:47:15;7.75;;;2.95;;
41687;SDS011;27371;42.686;23.362;2023-07-29T05:49:41;5.57;;;3.22;;
41687;SDS011;27371;42.686;23.362;2023-07-29T05:52:07;5.57;;;2.47;;
41687;SDS011;27371;42.686;23.362;2023-07-29T05:54:32;6.32;;;2.65;;
41687;SDS011;27371;42.686;23.362;2023-07-29T05:56:58;5.90;;;2.97;;
41687;SDS011;27371;42.686;23.362;2023-07-29T05:59:23;6.75;;;2.88;;
41687;SDS011;27371;42.686;23.362;2023-07-29T06:01:49;6.00;;;2.72;;
41687;SDS011;27371;42.686;23.362;2023-07-29T06:04:15;6.65;;;3.05;;
41687;SDS011;27371;42.686;23.362;2023-07-29T06:06:40;5.82;;;2.88;;
41687;SDS011;27371;42.686;23.362;2023-07-29T06:09:06;6.68;;;3.20;;
41687;SDS011;27371;42.686;23.362;2023-07-29T06:11:31;6.70;;;2.90;;
41687;SDS011;27371;42.686;23.362;2023-07-29T06:13:57;5.43;;;2.83;;
41687;SDS011;27371;42.686;23.362;2023-07-29T06:16:22;8.73;;;3.10;;
41687;SDS011;27371;42.686;23.362;2023-07-29T06:18:48;4.68;;;2.63;;
41687;SDS011;27371;42.686;23.362;2023-07-29T06:21:14;4.43;;;2.80;;
41687;SDS011;27371;42.686;23.362;2023-07-29T06:23:42;6.50;;;3.13;;
41687;SDS011;27371;42.686;23.362;2023-07-29T06:26:09;5.38;;;2.90;;
41687;SDS011;27371;42.686;23.362;2023-07-29T06:28:34;7.70;;;3.00;;
41687;SDS011;27371;42.686;23.362;2023-07-29T06:31:00;6.95;;;3.20;;
41687;SDS011;27371;42.686;23.362;2023-07-29T06:33:25;3.63;;;2.50;;
41687;SDS011;27371;42.686;23.362;2023-07-29T06:35:51;5.80;;;2.92;;
41687;SDS011;27371;42.686;23.362;2023-07-29T06:38:16;8.20;;;2.97;;
41687;SDS011;27371;42.686;23.362;2023-07-29T06:40:46;6.72;;;3.15;;
41687;SDS011;27371;42.686;23.362;2023-07-29T06:43:15;8.55;;;2.97;;
41687;SDS011;27371;42.686;23.362;2023-07-29T06:45:41;7.30;;;2.58;;
41687;SDS011;27371;42.686;23.362;2023-07-29T06:48:06;8.88;;;3.35;;
41687;SDS011;27371;42.686;23.362;2023-07-29T06:50:32;4.82;;;2.95;;
41687;SDS011;27371;42.686;23.362;2023-07-29T06:52:57;12.95;;;4.13;;
41687;SDS011;27371;42.686;23.362;2023-07-29T06:55:23;9.05;;;3.35;;
41687;SDS011;27371;42.686;23.362;2023-07-29T06:57:48;10.05;;;3.38;;
41687;SDS011;27371;42.686;23.362;2023-07-29T07:00:14;7.90;;;2.58;;
41687;SDS011;27371;42.686;23.362;2023-07-29T07:02:39;11.15;;;3.00;;
41687;SDS011;27371;42.686;23.362;2023-07-29T07:05:05;5.88;;;2.67;;
41687;SDS011;27371;42.686;23.362;2023-07-29T07:07:31;13.73;;;2.95;;
41687;SDS011;27371;42.686;23.362;2023-07-29T07:09:56;6.18;;;3.13;;
41687;SDS011;27371;42.686;23.362;2023-07-29T07:12:22;8.65;;;2.95;;
41687;SDS011;27371;42.686;23.362;2023-07-29T07:14:47;8.02;;;2.80;;
41687;SDS011;27371;42.686;23.362;2023-07-29T07:17:13;5.88;;;3.13;;
41687;SDS011;27371;42.686;23.362;2023-07-29T07:19:38;7.63;;;3.05;;
41687;SDS011;27371;42.686;23.362;2023-07-29T07:22:04;7.35;;;2.95;;
41687;SDS011;27371;42.686;23.362;2023-07-29T07:24:29;9.00;;;3.13;;
41687;SDS011;27371;42.686;23.362;2023-07-29T07:26:55;12.05;;;3.20;;
41687;SDS011;27371;42.686;23.362;2023-07-29T07:29:20;7.57;;;3.20;;
41687;SDS011;27371;42.686;23.362;2023-07-29T07:31:52;4.93;;;2.70;;
41687;SDS011;27371;42.686;23.362;2023-07-29T07:34:22;6.75;;;2.58;;
41687;SDS011;27371;42.686;23.362;2023-07-29T07:36:47;7.55;;;2.67;;
41687;SDS011;27371;42.686;23.362;2023-07-29T07:39:13;6.72;;;2.90;;
41687;SDS011;27371;42.686;23.362;2023-07-29T07:41:40;9.25;;;2.63;;
41687;SDS011;27371;42.686;23.362;2023-07-29T07:44:05;8.93;;;2.72;;
41687;SDS011;27371;42.686;23.362;2023-07-29T07:46:31;10.48;;;3.20;;
41687;SDS011;27371;42.686;23.362;2023-07-29T07:48:56;7.85;;;2.80;;
41687;SDS011;27371;42.686;23.362;2023-07-29T07:51:22;5.90;;;2.35;;
41687;SDS011;27371;42.686;23.362;2023-07-29T07:53:48;5.82;;;2.38;;
41687;SDS011;27371;42.686;23.362;2023-07-29T07:56:13;6.47;;;2.78;;
41687;SDS011;27371;42.686;23.362;2023-07-29T07:58:40;4.63;;;2.85;;
41687;SDS011;27371;42.686;23.362;2023-07-29T08:01:06;5.57;;;3.25;;
41687;SDS011;27371;42.686;23.362;2023-07-29T08:03:32;7.97;;;3.30;;
41687;SDS011;27371;42.686;23.362;2023-07-29T08:05:59;4.30;;;2.38;;
41687;SDS011;27371;42.686;23.362;2023-07-29T08:08:26;4.95;;;3.38;;
41687;SDS011;27371;42.686;23.362;2023-07-29T08:10:56;7.03;;;2.53;;
41687;SDS011;27371;42.686;23.362;2023-07-29T08:13:22;8.90;;;2.72;;
41687;SDS011;27371;42.686;23.362;2023-07-29T08:15:49;8.95;;;2.80;;
41687;SDS011;27371;42.686;23.362;2023-07-29T08:18:16;6.38;;;2.50;;
41687;SDS011;27371;42.686;23.362;2023-07-29T08:20:41;4.13;;;2.20;;
41687;SDS011;27371;42.686;23.362;2023-07-29T08:23:28;5.80;;;1.77;;
41687;SDS011;27371;42.686;23.362;2023-07-29T08:25:55;5.22;;;2.58;;
41687;SDS011;27371;42.686;23.362;2023-07-29T08:28:26;8.05;;;2.05;;
41687;SDS011;27371;42.686;23.362;2023-07-29T08:30:53;2.22;;;1.80;;
41687;SDS011;27371;42.686;23.362;2023-07-29T08:33:19;5.00;;;2.40;;
41687;SDS011;27371;42.686;23.362;2023-07-29T08:35:44;5.88;;;2.05;;
41687;SDS011;27371;42.686;23.362;2023-07-29T08:38:10;2.88;;;1.80;;
41687;SDS011;27371;42.686;23.362;2023-07-29T08:40:36;2.88;;;1.83;;
41687;SDS011;27371;42.686;23.362;2023-07-29T08:43:07;2.58;;;1.50;;
41687;SDS011;27371;42.686;23.362;2023-07-29T08:45:36;2.42;;;1.35;;
41687;SDS011;27371;42.686;23.362;2023-07-29T08:48:05;2.65;;;1.55;;
41687;SDS011;27371;42.686;23.362;2023-07-29T08:50:33;6.25;;;2.10;;
41687;SDS011;27371;42.686;23.362;2023-07-29T08:53:00;4.18;;;1.60;;
41687;SDS011;27371;42.686;23.362;2023-07-29T08:55:28;2.70;;;1.70;;
41687;SDS011;27371;42.686;23.362;2023-07-29T08:57:55;2.78;;;2.10;;
41687;SDS011;27371;42.686;23.362;2023-07-29T09:00:21;4.65;;;1.65;;
41687;SDS011;27371;42.686;23.362;2023-07-29T09:02:47;3.08;;;1.70;;
41687;SDS011;27371;42.686;23.362;2023-07-29T09:05:13;5.90;;;1.98;;
41687;SDS011;27371;42.686;23.362;2023-07-29T09:07:38;3.53;;;1.30;;
41687;SDS011;27371;42.686;23.362;2023-07-29T09:10:08;2.83;;;1.40;;
41687;SDS011;27371;42.686;23.362;2023-07-29T09:12:35;4.05;;;1.85;;
41687;SDS011;27371;42.686;23.362;2023-07-29T09:15:01;3.15;;;1.10;;
41687;SDS011;27371;42.686;23.362;2023-07-29T09:17:27;3.70;;;1.45;;
41687;SDS011;27371;42.686;23.362;2023-07-29T09:19:59;2.13;;;1.05;;
41687;SDS011;27371;42.686;23.362;2023-07-29T09:22:24;1.38;;;0.85;;
41687;SDS011;27371;42.686;23.362;2023-07-29T09:24:52;1.65;;;0.77;;
41687;SDS011;27371;42.686;23.362;2023-07-29T09:27:27;5.03;;;1.00;;
41687;SDS011;27371;42.686;23.362;2023-07-29T09:29:55;3.90;;;1.45;;
41687;SDS011;27371;42.686;23.362;2023-07-29T09:32:21;2.50;;;0.88;;
41687;SDS011;27371;42.686;23.362;2023-07-29T09:34:48;1.17;;;0.85;;
41687;SDS011;27371;42.686;23.362;2023-07-29T09:37:20;2.45;;;0.90;;
41687;SDS011;27371;42.686;23.362;2023-07-29T09:39:47;0.82;;;0.50;;
41687;SDS011;27371;42.686;23.362;2023-07-29T09:42:20;1.00;;;0.60;;
41687;SDS011;27371;42.686;23.362;2023-07-29T09:44:48;1.92;;;0.77;;
41687;SDS011;27371;42.686;23.362;2023-07-29T09:47:24;2.42;;;0.60;;
41687;SDS011;27371;42.686;23.362;2023-07-29T09:49:51;1.88;;;1.00;;
41687;SDS011;27371;42.686;23.362;2023-07-29T09:52:22;3.42;;;1.20;;
41687;SDS011;27371;42.686;23.362;2023-07-29T09:54:49;3.92;;;1.13;;
41687;SDS011;27371;42.686;23.362;2023-07-29T09:57:16;6.00;;;2.80;;
41687;SDS011;27371;42.686;23.362;2023-07-29T09:59:52;5.20;;;2.83;;
41687;SDS011;27371;42.686;23.362;2023-07-29T10:02:19;3.80;;;1.60;;
41687;SDS011;27371;42.686;23.362;2023-07-29T10:04:46;3.25;;;0.80;;
41687;SDS011;27371;42.686;23.362;2023-07-29T10:07:12;1.80;;;0.80;;
41687;SDS011;27371;42.686;23.362;2023-07-29T10:09:39;4.10;;;1.15;;
41687;SDS011;27371;42.686;23.362;2023-07-29T10:12:05;2.15;;;0.93;;
41687;SDS011;27371;42.686;23.362;2023-07-29T10:14:31;1.80;;;0.90;;
41687;SDS011;27371;42.686;23.362;2023-07-29T10:16:57;2.88;;;0.73;;
41687;SDS011;27371;42.686;23.362;2023-07-29T10:19:24;5.05;;;0.85;;
41687;SDS011;27371;42.686;23.362;2023-07-29T10:21:53;6.28;;;0.80;;
41687;SDS011;27371;42.686;23.362;2023-07-29T10:24:22;3.13;;;0.60;;
41687;SDS011;27371;42.686;23.362;2023-07-29T10:26:54;4.45;;;0.90;;
41687;SDS011;27371;42.686;23.362;2023-07-29T10:29:28;1.30;;;0.75;;
41687;SDS011;27371;42.686;23.362;2023-07-29T10:31:57;1.33;;;0.60;;
41687;SDS011;27371;42.686;23.362;2023-07-29T10:34:26;3.10;;;0.77;;
41687;SDS011;27371;42.686;23.362;2023-07-29T10:36:52;3.50;;;0.80;;
41687;SDS011;27371;42.686;23.362;2023-07-29T10:39:19;2.33;;;1.25;;
41687;SDS011;27371;42.686;23.362;2023-07-29T10:49:59;4.03;;;2.45;;
41687;SDS011;27371;42.686;23.362;2023-07-29T10:52:37;4.47;;;1.63;;
41687;SDS011;27371;42.686;23.362;2023-07-29T10:55:52;2.65;;;0.90;;
41687;SDS011;27371;42.686;23.362;2023-07-29T10:58:05;2.90;;;0.55;;
41687;SDS011;27371;42.686;23.362;2023-07-29T11:00:32;1.23;;;0.60;;
41687;SDS011;27371;42.686;23.362;2023-07-29T11:03:16;1.13;;;0.63;;
41687;SDS011;27371;42.686;23.362;2023-07-29T11:11:03;1.15;;;0.47;;
41687;SDS011;27371;42.686;23.362;2023-07-29T11:13:33;2.50;;;0.80;;
41687;SDS011;27371;42.686;23.362;2023-07-29T11:16:00;2.25;;;1.13;;
41687;SDS011;27371;42.686;23.362;2023-07-29T11:18:33;1.15;;;0.65;;
41687;SDS011;27371;42.686;23.362;2023-07-29T11:21:00;1.75;;;0.60;;
41687;SDS011;27371;42.686;23.362;2023-07-29T11:23:27;1.85;;;0.55;;
41687;SDS011;27371;42.686;23.362;2023-07-29T11:25:57;0.90;;;0.57;;
41687;SDS011;27371;42.686;23.362;2023-07-29T11:28:23;4.13;;;0.70;;
41687;SDS011;27371;42.686;23.362;2023-07-29T11:30:50;6.78;;;0.77;;
41687;SDS011;27371;42.686;23.362;2023-07-29T11:33:24;1.80;;;0.90;;
41687;SDS011;27371;42.686;23.362;2023-07-29T11:35:51;3.38;;;0.57;;
41687;SDS011;27371;42.686;23.362;2023-07-29T11:38:18;3.60;;;0.50;;
41687;SDS011;27371;42.686;23.362;2023-07-29T11:40:55;2.92;;;0.50;;
41687;SDS011;27371;42.686;23.362;2023-07-29T11:43:21;1.77;;;0.50;;
41687;SDS011;27371;42.686;23.362;2023-07-29T11:45:47;1.17;;;0.82;;
41687;SDS011;27371;42.686;23.362;2023-07-29T11:48:12;1.70;;;0.98;;
41687;SDS011;27371;42.686;23.362;2023-07-29T11:50:38;3.25;;;0.90;;
41687;SDS011;27371;42.686;23.362;2023-07-29T11:53:03;6.40;;;1.05;;
41687;SDS011;27371;42.686;23.362;2023-07-29T11:55:30;4.28;;;1.75;;
41687;SDS011;27371;42.686;23.362;2023-07-29T11:57:55;2.00;;;1.33;;
41687;SDS011;27371;42.686;23.362;2023-07-29T12:00:22;3.85;;;1.17;;
41687;SDS011;27371;42.686;23.362;2023-07-29T12:02:48;2.03;;;0.95;;
41687;SDS011;27371;42.686;23.362;2023-07-29T12:05:14;2.70;;;1.05;;
41687;SDS011;27371;42.686;23.362;2023-07-29T12:07:41;0.80;;;0.55;;
41687;SDS011;27371;42.686;23.362;2023-07-29T12:10:07;2.00;;;0.73;;
41687;SDS011;27371;42.686;23.362;2023-07-29T12:12:38;2.60;;;1.10;;
41687;SDS011;27371;42.686;23.362;2023-07-29T12:15:09;1.35;;;0.63;;
41687;SDS011;27371;42.686;23.362;2023-07-29T12:17:39;1.17;;;0.60;;
41687;SDS011;27371;42.686;23.362;2023-07-29T12:20:07;3.33;;;0.88;;
41687;SDS011;27371;42.686;23.362;2023-07-29T12:22:33;1.17;;;0.80;;
41687;SDS011;27371;42.686;23.362;2023-07-29T12:24:59;1.38;;;0.68;;
41687;SDS011;27371;42.686;23.362;2023-07-29T12:27:24;1.40;;;0.88;;
41687;SDS011;27371;42.686;23.362;2023-07-29T12:29:51;2.60;;;0.95;;
41687;SDS011;27371;42.686;23.362;2023-07-29T12:32:18;3.58;;;0.90;;
41687;SDS011;27371;42.686;23.362;2023-07-29T12:34:44;3.17;;;0.80;;
41687;SDS011;27371;42.686;23.362;2023-07-29T12:37:09;2.70;;;1.45;;
41687;SDS011;27371;42.686;23.362;2023-07-29T12:39:38;1.40;;;0.95;;
41687;SDS011;27371;42.686;23.362;2023-07-29T12:42:06;4.57;;;1.10;;
41687;SDS011;27371;42.686;23.362;2023-07-29T12:44:33;2.10;;;0.90;;
41687;SDS011;27371;42.686;23.362;2023-07-29T12:47:03;1.83;;;0.98;;
41687;SDS011;27371;42.686;23.362;2023-07-29T12:49:30;2.45;;;0.90;;
41687;SDS011;27371;42.686;23.362;2023-07-29T12:51:56;1.00;;;0.82;;
41687;SDS011;27371;42.686;23.362;2023-07-29T12:54:22;0.98;;;0.70;;
41687;SDS011;27371;42.686;23.362;2023-07-29T12:56:48;2.88;;;0.90;;
41687;SDS011;27371;42.686;23.362;2023-07-29T12:59:13;5.63;;;1.05;;
41687;SDS011;27371;42.686;23.362;2023-07-29T13:01:40;1.38;;;1.27;;
41687;SDS011;27371;42.686;23.362;2023-07-29T13:04:05;4.30;;;0.98;;
41687;SDS011;27371;42.686;23.362;2023-07-29T13:06:31;1.95;;;0.80;;
41687;SDS011;27371;42.686;23.362;2023-07-29T13:08:56;1.33;;;0.93;;
41687;SDS011;27371;42.686;23.362;2023-07-29T13:11:22;1.20;;;0.90;;
41687;SDS011;27371;42.686;23.362;2023-07-29T13:13:47;5.97;;;0.90;;
41687;SDS011;27371;42.686;23.362;2023-07-29T13:16:14;0.95;;;0.70;;
41687;SDS011;27371;42.686;23.362;2023-07-29T13:18:40;1.33;;;0.90;;
41687;SDS011;27371;42.686;23.362;2023-07-29T13:21:06;1.77;;;0.70;;
41687;SDS011;27371;42.686;23.362;2023-07-29T13:23:31;1.40;;;1.10;;
41687;SDS011;27371;42.686;23.362;2023-07-29T13:25:57;1.90;;;0.90;;
41687;SDS011;27371;42.686;23.362;2023-07-29T13:28:23;4.25;;;0.90;;
41687;SDS011;27371;42.686;23.362;2023-07-29T13:30:48;3.22;;;0.75;;
41687;SDS011;27371;42.686;23.362;2023-07-29T13:33:14;1.90;;;0.80;;
41687;SDS011;27371;42.686;23.362;2023-07-29T13:35:39;2.50;;;0.95;;
41687;SDS011;27371;42.686;23.362;2023-07-29T13:38:05;6.13;;;1.65;;
41687;SDS011;27371;42.686;23.362;2023-07-29T13:40:31;3.65;;;0.90;;
41687;SDS011;27371;42.686;23.362;2023-07-29T13:42:56;2.03;;;1.08;;
41687;SDS011;27371;42.686;23.362;2023-07-29T13:45:22;2.05;;;1.33;;
41687;SDS011;27371;42.686;23.362;2023-07-29T13:47:48;1.40;;;1.20;;
41687;SDS011;27371;42.686;23.362;2023-07-29T13:50:15;2.10;;;1.30;;
41687;SDS011;27371;42.686;23.362;2023-07-29T13:52:41;7.82;;;1.27;;
41687;SDS011;27371;42.686;23.362;2023-07-29T13:55:06;1.70;;;1.10;;
41687;SDS011;27371;42.686;23.362;2023-07-29T13:57:32;1.27;;;1.00;;
41687;SDS011;27371;42.686;23.362;2023-07-29T13:59:58;1.20;;;0.90;;
41687;SDS011;27371;42.686;23.362;2023-07-29T14:02:24;3.08;;;1.10;;
41687;SDS011;27371;42.686;23.362;2023-07-29T14:04:51;1.30;;;0.73;;
41687;SDS011;27371;42.686;23.362;2023-07-29T14:07:17;3.45;;;1.23;;
41687;SDS011;27371;42.686;23.362;2023-07-29T14:09:42;4.75;;;0.98;;
41687;SDS011;27371;42.686;23.362;2023-07-29T14:12:08;1.10;;;0.88;;
41687;SDS011;27371;42.686;23.362;2023-07-29T14:14:40;1.85;;;1.10;;
41687;SDS011;27371;42.686;23.362;2023-07-29T14:17:06;2.65;;;1.20;;
41687;SDS011;27371;42.686;23.362;2023-07-29T14:19:33;2.70;;;1.20;;
41687;SDS011;27371;42.686;23.362;2023-07-29T14:21:59;1.02;;;0.75;;
41687;SDS011;27371;42.686;23.362;2023-07-29T14:24:25;1.20;;;1.10;;
41687;SDS011;27371;42.686;23.362;2023-07-29T14:26:50;4.18;;;0.93;;
41687;SDS011;27371;42.686;23.362;2023-07-29T14:29:16;1.67;;;0.90;;
41687;SDS011;27371;42.686;23.362;2023-07-29T14:31:41;5.10;;;1.08;;
41687;SDS011;27371;42.686;23.362;2023-07-29T14:34:07;8.02;;;1.42;;
41687;SDS011;27371;42.686;23.362;2023-07-29T14:36:33;1.55;;;0.80;;
41687;SDS011;27371;42.686;23.362;2023-07-29T14:38:58;1.48;;;0.70;;
41687;SDS011;27371;42.686;23.362;2023-07-29T14:41:24;4.00;;;0.90;;
41687;SDS011;27371;42.686;23.362;2023-07-29T14:43:49;3.08;;;1.05;;
41687;SDS011;27371;42.686;23.362;2023-07-29T14:46:15;2.05;;;1.00;;
41687;SDS011;27371;42.686;23.362;2023-07-29T14:48:40;4.97;;;1.20;;
41687;SDS011;27371;42.686;23.362;2023-07-29T14:51:06;1.55;;;1.02;;
41687;SDS011;27371;42.686;23.362;2023-07-29T14:53:31;2.55;;;1.15;;
41687;SDS011;27371;42.686;23.362;2023-07-29T14:55:57;2.85;;;0.88;;